createdAt,value
2019-03-25T00:02:29.032Z,9.40
2019-03-25T00:05:06.246Z,9.40
2019-03-25T00:07:42.925Z,9.40
2019-03-25T00:10:16.151Z,9.30
2019-03-25T00:13:04.055Z,9.30
2019-03-25T00:15:41.492Z,9.20
2019-03-25T00:18:25.088Z,9.60
2019-03-25T00:21:07.174Z,9.00
2019-03-25T00:23:42.670Z,9.30
2019-03-25T00:26:40.266Z,9.20
2019-03-25T00:33:00.321Z,8.70
2019-03-25T00:36:08.901Z,8.60
2019-03-25T00:39:23.817Z,8.50
2019-03-25T00:42:47.700Z,8.80
2019-03-25T00:46:37.140Z,8.60
2019-03-25T00:49:42.988Z,8.20
2019-03-25T00:56:34.213Z,8.00
2019-03-25T01:03:23.794Z,8.50
2019-03-25T01:06:58.971Z,8.10
2019-03-25T01:09:45.374Z,8.20
2019-03-25T01:13:08.388Z,8.40
2019-03-25T01:15:59.912Z,8.00
2019-03-25T01:19:08.814Z,8.60
2019-03-25T01:22:37.443Z,8.50
2019-03-25T01:28:47.136Z,8.70
2019-03-25T01:31:52.921Z,8.70
2019-03-25T01:34:47.711Z,8.60
2019-03-25T01:41:21.994Z,9.10
2019-03-25T01:51:23.368Z,9.20
2019-03-25T01:54:29.723Z,9.20
2019-03-25T01:58:28.701Z,9.20
2019-03-25T02:05:13.100Z,9.30
2019-03-25T02:09:06.042Z,9.30
2019-03-25T02:12:45.622Z,9.40
2019-03-25T02:23:18.956Z,9.50
2019-03-25T02:29:33.821Z,9.60
2019-03-25T02:32:22.823Z,9.60
2019-03-25T02:35:09.458Z,9.60
2019-03-25T02:38:35.868Z,10.50
2019-03-25T02:41:40.590Z,9.50
2019-03-25T02:47:21.718Z,9.50
2019-03-25T02:49:54.321Z,9.60
2019-03-25T02:52:24.301Z,9.40
2019-03-25T02:54:55.790Z,6.10
2019-03-25T02:58:02.554Z,9.80
2019-03-25T03:00:49.095Z,9.90
2019-03-25T03:06:27.931Z,9.60
2019-03-25T03:09:31.184Z,9.50
2019-03-25T03:12:17.373Z,9.50
2019-03-25T03:15:25.924Z,9.70
2019-03-25T03:18:05.653Z,10.00
2019-03-25T03:20:35.990Z,9.70
2019-03-25T03:23:10.660Z,9.30
2019-03-25T03:25:57.127Z,9.40
2019-03-25T03:28:35.121Z,9.40
2019-03-25T03:31:03.788Z,9.30
2019-03-25T03:33:45.058Z,8.60
2019-03-25T03:36:15.530Z,9.30
2019-03-25T03:38:47.029Z,9.10
2019-03-25T03:41:18.456Z,9.10
2019-03-25T03:43:54.043Z,9.10
2019-03-25T03:46:34.017Z,9.30
2019-03-25T03:49:17.121Z,9.10
2019-03-25T03:51:53.652Z,9.10
2019-03-25T03:54:24.285Z,9.00
2019-03-25T03:57:04.106Z,9.10
2019-03-25T03:59:43.232Z,9.20
2019-03-25T04:02:16.809Z,9.70
2019-03-25T04:04:48.653Z,9.30
2019-03-25T04:07:51.328Z,7.00
2019-03-25T04:10:39.568Z,9.00
2019-03-25T04:13:48.269Z,9.00
2019-03-25T04:16:28.045Z,9.00
2019-03-25T04:19:02.677Z,8.10
2019-03-25T04:21:35.791Z,8.80
2019-03-25T04:24:19.520Z,10.90
2019-03-25T04:26:54.006Z,8.90
2019-03-25T04:29:28.291Z,11.50
2019-03-25T04:31:56.766Z,8.30
2019-03-25T04:34:38.423Z,9.10
2019-03-25T04:37:12.742Z,9.00
2019-03-25T04:43:32.568Z,8.70
2019-03-25T04:46:57.480Z,8.90
2019-03-25T04:49:31.337Z,8.70
2019-03-25T04:52:09.392Z,8.60
2019-03-25T04:54:41.356Z,11.00
2019-03-25T04:57:18.181Z,8.80
2019-03-25T04:59:46.601Z,7.90
2019-03-25T05:02:22.152Z,8.80
2019-03-25T05:04:56.662Z,6.90
2019-03-25T05:07:26.429Z,10.10
2019-03-25T05:09:54.849Z,8.50
2019-03-25T05:12:26.237Z,8.70
2019-03-25T05:14:56.684Z,8.80
2019-03-25T05:17:26.994Z,8.80
2019-03-25T05:20:02.808Z,8.50
2019-03-25T05:22:31.150Z,8.90
2019-03-25T05:24:59.601Z,8.50
2019-03-25T05:27:27.763Z,8.60
2019-03-25T05:29:55.958Z,8.60
2019-03-25T05:32:24.119Z,8.70
2019-03-25T05:34:52.380Z,8.70
2019-03-25T05:37:20.733Z,8.90
2019-03-25T05:39:48.950Z,9.00
2019-03-25T05:42:17.146Z,9.00
2019-03-25T05:44:45.426Z,9.00
2019-03-25T05:47:13.561Z,9.10
2019-03-25T05:49:41.848Z,9.20
2019-03-25T05:52:10.028Z,9.20
2019-03-25T05:54:38.265Z,9.20
2019-03-25T05:57:06.438Z,9.30
2019-03-25T05:59:34.567Z,9.30
2019-03-25T06:02:02.890Z,9.30
2019-03-25T06:04:31.130Z,9.40
2019-03-25T06:06:59.393Z,9.50
2019-03-25T06:09:27.570Z,9.60
2019-03-25T06:11:55.681Z,9.80
2019-03-25T06:14:23.921Z,9.90
2019-03-25T06:16:52.120Z,10.10
2019-03-25T06:19:20.284Z,10.10
2019-03-25T06:21:48.531Z,10.30
2019-03-25T06:24:16.662Z,10.40
2019-03-25T06:26:44.846Z,10.50
2019-03-25T06:29:13.030Z,10.50
2019-03-25T06:31:41.139Z,10.60
2019-03-25T06:34:09.438Z,10.70
2019-03-25T06:36:37.592Z,10.80
2019-03-25T06:39:06.018Z,10.90
2019-03-25T06:41:34.161Z,10.90
2019-03-25T06:44:02.421Z,11.10
2019-03-25T06:46:30.608Z,11.40
2019-03-25T06:48:58.880Z,11.70
2019-03-25T06:51:27.125Z,11.70
2019-03-25T06:53:55.424Z,11.70
2019-03-25T06:56:23.585Z,11.70
2019-03-25T06:58:52.046Z,11.50
2019-03-25T07:01:20.192Z,11.40
2019-03-25T07:03:48.413Z,11.30
2019-03-25T07:06:16.675Z,11.40
2019-03-25T07:08:44.838Z,11.40
2019-03-25T07:11:13.011Z,11.50
2019-03-25T07:13:41.284Z,11.50
2019-03-25T07:16:09.480Z,11.70
2019-03-25T07:18:37.672Z,11.90
2019-03-25T07:21:05.953Z,11.90
2019-03-25T07:23:34.230Z,12.00
2019-03-25T07:26:02.527Z,12.10
2019-03-25T07:28:30.865Z,12.10
2019-03-25T07:30:59.237Z,12.10
2019-03-25T07:33:27.362Z,12.10
2019-03-25T07:35:55.650Z,12.20
2019-03-25T07:38:23.988Z,12.20
2019-03-25T07:40:52.344Z,12.20
2019-03-25T07:43:20.452Z,12.30
2019-03-25T07:45:48.695Z,12.20
2019-03-25T07:48:16.875Z,12.20
2019-03-25T07:50:45.141Z,12.20
2019-03-25T07:53:13.321Z,12.10
2019-03-25T07:55:41.504Z,12.10
2019-03-25T07:58:09.607Z,12.00
2019-03-25T08:00:37.899Z,12.10
2019-03-25T08:03:06.116Z,12.40
2019-03-25T08:05:34.413Z,12.50
2019-03-25T08:08:02.662Z,12.70
2019-03-25T08:10:35.165Z,12.80
2019-03-25T08:13:03.679Z,12.80
2019-03-25T08:15:32.379Z,12.80
2019-03-25T08:18:00.654Z,12.90
2019-03-25T08:20:28.781Z,12.60
2019-03-25T08:22:56.939Z,12.60
2019-03-25T08:25:25.125Z,12.70
2019-03-25T08:27:59.916Z,12.80
2019-03-25T08:30:23.335Z,12.60
2019-03-25T08:32:51.495Z,12.80
2019-03-25T08:35:19.633Z,12.80
2019-03-25T08:37:47.800Z,12.90
2019-03-25T08:40:16.137Z,13.10
2019-03-25T08:42:44.367Z,13.10
2019-03-25T08:45:12.932Z,13.20
2019-03-25T08:47:41.163Z,13.20
2019-03-25T08:50:09.796Z,13.30
2019-03-25T08:52:37.983Z,13.40
2019-03-25T08:55:06.649Z,13.40
2019-03-25T08:57:45.214Z,13.50
2019-03-25T09:00:22.648Z,13.50
2019-03-25T09:04:28.785Z,13.30
2019-03-25T09:05:31.691Z,13.30
2019-03-25T09:08:00.303Z,13.50
2019-03-25T09:10:38.106Z,13.50
2019-03-25T09:13:06.232Z,13.40
2019-03-25T09:15:34.410Z,13.30
2019-03-25T09:18:02.570Z,13.60
2019-03-25T09:20:30.813Z,13.60
2019-03-25T09:22:59.015Z,13.80
2019-03-25T09:25:27.350Z,13.80
2019-03-25T09:27:56.762Z,14.20
2019-03-25T09:31:17.396Z,14.20
2019-03-25T09:33:47.577Z,14.00
2019-03-25T09:36:17.288Z,14.10
2019-03-25T09:38:47.905Z,14.40
2019-03-25T09:41:16.185Z,14.60
2019-03-25T09:43:44.360Z,14.60
2019-03-25T09:46:12.636Z,14.70
2019-03-25T09:48:41.058Z,14.50
2019-03-25T09:51:09.556Z,14.70
2019-03-25T09:53:37.932Z,15.20
2019-03-25T09:56:06.141Z,15.20
2019-03-25T09:58:36.591Z,15.50
2019-03-25T10:01:04.389Z,15.60
2019-03-25T10:03:32.588Z,15.90
2019-03-25T10:06:00.949Z,15.90
2019-03-25T10:09:23.842Z,15.90
2019-03-25T10:12:19.313Z,16.20
2019-03-25T10:14:56.197Z,16.20
2019-03-25T10:18:59.584Z,16.10
2019-03-25T10:20:36.958Z,15.40
2019-03-25T10:23:05.092Z,16.30
2019-03-25T10:25:33.201Z,16.10
2019-03-25T10:28:01.387Z,16.20
2019-03-25T10:30:35.742Z,16.00
2019-03-25T10:33:04.071Z,16.00
2019-03-25T10:35:32.299Z,16.10
2019-03-25T10:38:00.541Z,16.40
2019-03-25T10:40:28.710Z,17.00
2019-03-25T10:42:59.665Z,16.90
2019-03-25T10:45:27.877Z,16.60
2019-03-25T10:48:16.945Z,16.90
2019-03-25T10:52:36.260Z,17.00
2019-03-25T10:55:00.535Z,16.60
2019-03-25T10:57:29.094Z,15.90
2019-03-25T10:59:57.283Z,15.50
2019-03-25T11:02:25.410Z,15.30
2019-03-25T11:05:46.535Z,15.30
2019-03-25T11:09:40.161Z,15.10
2019-03-25T11:12:38.253Z,15.30
2019-03-25T11:21:35.079Z,14.20
2019-03-25T11:24:39.884Z,14.20
2019-03-25T11:27:11.131Z,14.40
2019-03-25T11:29:45.770Z,11.70
2019-03-25T11:32:17.143Z,13.70
2019-03-25T11:34:45.305Z,13.70
2019-03-25T11:37:13.460Z,11.50
2019-03-25T11:39:41.755Z,13.60
2019-03-25T11:42:10.344Z,13.60
2019-03-25T11:44:38.666Z,13.70
2019-03-25T11:47:06.878Z,13.70
2019-03-25T11:49:35.156Z,13.60
2019-03-25T11:52:03.282Z,13.50
2019-03-25T11:54:31.339Z,13.50
2019-03-25T11:56:59.490Z,13.80
2019-03-25T11:59:27.643Z,13.70
2019-03-25T12:01:55.864Z,13.90
2019-03-25T12:04:24.302Z,14.00
2019-03-25T12:06:52.443Z,14.30
2019-03-25T12:09:20.725Z,13.90
2019-03-25T12:11:48.916Z,13.70
2019-03-25T12:14:17.283Z,13.80
2019-03-25T12:16:45.550Z,14.00
2019-03-25T12:19:13.786Z,14.00
2019-03-25T12:21:42.193Z,14.00
2019-03-25T12:24:10.397Z,14.20
2019-03-25T12:26:38.674Z,14.10
2019-03-25T12:29:06.995Z,14.20
2019-03-25T12:31:35.282Z,14.10
2019-03-25T12:34:04.719Z,14.20
2019-03-25T12:36:33.892Z,14.10
2019-03-25T12:39:02.189Z,14.10
2019-03-25T12:41:30.371Z,13.60
2019-03-25T12:43:58.652Z,13.40
2019-03-25T12:46:26.984Z,13.30
2019-03-25T12:48:55.301Z,13.30
2019-03-25T12:51:23.575Z,13.10
2019-03-25T12:53:51.803Z,13.00
2019-03-25T12:56:20.540Z,13.00
2019-03-25T12:58:48.708Z,12.50
2019-03-25T13:01:16.864Z,12.40
2019-03-25T13:03:45.129Z,12.30
2019-03-25T13:06:13.265Z,12.10
2019-03-25T13:08:41.518Z,11.70
2019-03-25T13:11:09.648Z,11.20
2019-03-25T13:13:37.805Z,11.10
2019-03-25T13:16:05.928Z,11.00
2019-03-25T13:18:34.225Z,11.00
2019-03-25T13:21:02.342Z,10.90
2019-03-25T13:23:30.478Z,11.00
2019-03-25T13:25:58.587Z,10.90
2019-03-25T13:28:26.740Z,10.80
2019-03-25T13:30:54.981Z,10.70
2019-03-25T13:33:23.313Z,10.50
2019-03-25T13:35:51.461Z,10.40
2019-03-25T13:38:19.603Z,10.40
2019-03-25T13:40:47.761Z,10.30
2019-03-25T13:43:15.928Z,10.40
2019-03-25T13:45:44.181Z,10.50
2019-03-25T13:48:12.315Z,10.70
2019-03-25T13:50:40.851Z,10.60
2019-03-25T13:53:09.152Z,10.60
2019-03-25T13:55:37.511Z,10.60
2019-03-25T13:58:05.589Z,10.60
2019-03-25T14:00:40.635Z,10.60
2019-03-25T14:03:08.929Z,10.70
2019-03-25T14:05:37.502Z,10.80
2019-03-25T14:08:05.968Z,10.90
2019-03-25T14:10:34.051Z,11.00
2019-03-25T14:13:02.247Z,11.10
2019-03-25T14:15:30.414Z,11.20
2019-03-25T14:17:58.746Z,11.20
2019-03-25T14:20:26.955Z,11.10
2019-03-25T14:22:55.091Z,11.10
2019-03-25T14:25:23.266Z,11.10
2019-03-25T14:27:51.356Z,11.20
2019-03-25T14:30:19.768Z,11.20
2019-03-25T14:32:48.038Z,11.10
2019-03-25T14:35:16.263Z,10.90
2019-03-25T14:37:44.353Z,10.90
2019-03-25T14:40:12.708Z,10.80
2019-03-25T14:42:41.154Z,10.70
2019-03-25T14:45:09.610Z,10.70
2019-03-25T14:47:38.063Z,10.60
2019-03-25T14:50:08.394Z,10.50
2019-03-25T14:52:36.550Z,10.40
2019-03-25T14:55:04.777Z,10.40
2019-03-25T14:57:33.439Z,10.30
2019-03-25T15:00:01.534Z,10.30
2019-03-25T15:02:29.716Z,10.20
2019-03-25T15:04:57.862Z,10.10
2019-03-25T15:07:25.989Z,10.20
2019-03-25T15:09:54.149Z,10.20
2019-03-25T15:12:22.587Z,10.10
2019-03-25T15:14:50.749Z,10.00
2019-03-25T15:17:18.866Z,10.00
2019-03-25T15:19:47.434Z,9.90
2019-03-25T15:22:16.156Z,9.80
2019-03-25T15:24:44.885Z,9.00
2019-03-25T15:27:13.621Z,9.80
2019-03-25T15:29:42.143Z,9.80
2019-03-25T15:32:11.533Z,9.80
2019-03-25T15:34:40.015Z,9.70
2019-03-25T15:37:08.532Z,10.90
2019-03-25T15:39:46.326Z,9.60
2019-03-25T15:42:07.016Z,9.60
2019-03-25T15:44:35.657Z,9.60
2019-03-25T15:47:04.304Z,9.60
2019-03-25T15:49:32.865Z,9.60
2019-03-25T15:52:01.449Z,9.60
2019-03-25T15:54:29.856Z,9.00
2019-03-25T15:56:58.148Z,9.60
2019-03-25T15:59:26.643Z,9.60
2019-03-25T16:01:55.002Z,9.60
2019-03-25T16:04:23.397Z,9.70
2019-03-25T16:06:52.073Z,9.60
2019-03-25T16:09:20.721Z,9.50
2019-03-25T16:11:48.950Z,9.50
2019-03-25T16:14:17.370Z,9.60
2019-03-25T16:16:45.820Z,9.40
2019-03-25T16:19:14.446Z,9.40
2019-03-25T16:21:42.850Z,9.40
2019-03-25T16:24:11.403Z,9.40
2019-03-25T16:26:40.188Z,9.40
2019-03-25T16:29:08.428Z,9.40
2019-03-25T16:31:36.741Z,9.40
2019-03-25T16:34:05.074Z,9.40
2019-03-25T16:36:33.499Z,9.40
2019-03-25T16:39:01.858Z,9.40
2019-03-25T16:41:30.197Z,9.40
2019-03-25T16:43:58.804Z,9.40
2019-03-25T16:46:27.774Z,9.40
2019-03-25T16:48:56.867Z,9.30
2019-03-25T16:51:25.494Z,9.30
2019-03-25T16:53:54.077Z,9.20
2019-03-25T16:56:22.417Z,9.30
2019-03-25T16:58:51.094Z,9.20
2019-03-25T17:01:19.521Z,9.30
2019-03-25T17:03:47.882Z,9.40
2019-03-25T17:06:17.461Z,9.40
2019-03-25T17:08:45.880Z,9.30
2019-03-25T17:13:42.632Z,9.30
2019-03-25T17:16:11.140Z,9.30
2019-03-25T17:18:39.450Z,9.30
2019-03-25T17:21:08.109Z,9.30
2019-03-25T17:23:36.631Z,9.20
2019-03-25T17:26:04.797Z,9.20
2019-03-25T17:28:33.021Z,9.10
2019-03-25T17:31:03.048Z,9.10
2019-03-25T17:33:31.279Z,9.10
2019-03-25T17:35:59.475Z,9.10
2019-03-25T17:38:27.686Z,9.10
2019-03-25T17:40:55.826Z,9.10
2019-03-25T17:43:24.052Z,9.10
2019-03-25T17:45:52.216Z,9.10
2019-03-25T17:48:20.462Z,9.10
2019-03-25T17:50:48.645Z,9.10
2019-03-25T17:53:16.907Z,9.10
2019-03-25T17:55:45.164Z,9.00
2019-03-25T17:58:13.320Z,9.10
2019-03-25T18:01:03.982Z,9.10
2019-03-25T18:03:32.096Z,9.00
2019-03-25T18:06:06.204Z,8.90
2019-03-25T18:08:34.341Z,8.80
2019-03-25T18:11:02.940Z,8.70
2019-03-25T18:13:31.079Z,8.70
2019-03-25T18:15:59.245Z,8.70
2019-03-25T18:18:27.457Z,8.60
2019-03-25T18:20:55.722Z,8.60
2019-03-25T18:23:23.885Z,8.50
2019-03-25T18:25:52.022Z,8.50
2019-03-25T18:28:20.242Z,8.50
2019-03-25T18:30:48.515Z,8.40
2019-03-25T18:33:16.620Z,8.40
2019-03-25T18:35:45.141Z,8.30
2019-03-25T18:38:13.920Z,8.30
2019-03-25T18:40:42.617Z,8.30
2019-03-25T18:43:12.732Z,8.20
2019-03-25T18:45:41.665Z,8.30
2019-03-25T18:48:10.444Z,8.20
2019-03-25T18:50:39.308Z,8.20
2019-03-25T18:53:07.773Z,8.20
2019-03-25T18:55:35.977Z,8.10
2019-03-25T18:58:04.705Z,8.10
2019-03-25T19:00:33.488Z,8.10
2019-03-25T19:03:01.756Z,8.20
2019-03-25T19:05:29.966Z,8.20
2019-03-25T19:08:00.116Z,8.20
2019-03-25T19:10:28.843Z,8.20
2019-03-25T19:12:57.021Z,8.10
2019-03-25T19:15:25.203Z,8.10
2019-03-25T19:17:53.372Z,8.00
2019-03-25T19:20:21.592Z,8.00
2019-03-25T19:22:49.811Z,8.00
2019-03-25T19:25:17.953Z,8.00
2019-03-25T19:27:46.203Z,8.00
2019-03-25T19:30:14.446Z,7.90
2019-03-25T19:32:42.570Z,7.90
2019-03-25T19:35:10.916Z,7.90
2019-03-25T19:37:39.095Z,7.90
2019-03-25T19:40:07.459Z,7.90
2019-03-25T19:42:35.722Z,7.80
2019-03-25T19:45:04.114Z,7.80
2019-03-25T19:47:32.317Z,7.80
2019-03-25T19:50:00.493Z,7.70
2019-03-25T19:52:28.892Z,7.80
2019-03-25T19:54:57.052Z,7.70
2019-03-25T19:57:28.023Z,7.60
2019-03-25T19:59:55.148Z,7.60
2019-03-25T20:02:23.449Z,7.60
2019-03-25T20:04:51.609Z,7.50
2019-03-25T20:07:19.828Z,7.50
2019-03-25T20:09:48.021Z,7.50
2019-03-25T20:12:16.184Z,7.40
2019-03-25T20:14:44.491Z,7.40
2019-03-25T20:17:12.709Z,7.40
2019-03-25T20:19:40.901Z,7.30
2019-03-25T20:22:09.121Z,7.30
2019-03-25T20:24:37.367Z,7.20
2019-03-25T20:27:05.900Z,7.20
2019-03-25T20:29:34.043Z,7.20
2019-03-25T20:32:02.263Z,7.10
2019-03-25T20:34:30.417Z,7.10
2019-03-25T20:36:58.644Z,7.10
2019-03-25T20:39:26.842Z,7.10
2019-03-25T20:41:55.060Z,7.00
2019-03-25T20:44:23.948Z,7.10
2019-03-25T20:46:52.240Z,7.10
2019-03-25T20:49:20.729Z,5.90
2019-03-25T20:51:49.093Z,7.00
2019-03-25T20:54:17.601Z,7.10
2019-03-25T20:56:46.212Z,7.00
2019-03-25T20:59:14.633Z,6.90
2019-03-25T21:01:42.999Z,6.90
2019-03-25T21:04:11.157Z,7.00
2019-03-25T21:06:39.286Z,6.80
2019-03-25T21:09:07.769Z,6.90
2019-03-25T21:11:35.996Z,6.80
2019-03-25T21:14:04.264Z,6.70
2019-03-25T21:16:32.450Z,6.80
2019-03-25T21:19:00.798Z,5.90
2019-03-25T21:21:29.011Z,6.60
2019-03-25T21:23:59.132Z,6.60
2019-03-25T21:26:27.327Z,6.50
2019-03-25T21:28:55.464Z,6.50
2019-03-25T21:31:24.000Z,6.60
2019-03-25T21:33:52.187Z,6.50
2019-03-25T21:36:20.669Z,6.50
2019-03-25T21:38:48.845Z,6.50
2019-03-25T21:41:17.166Z,6.50
2019-03-25T21:43:45.582Z,6.50
2019-03-25T21:46:13.774Z,6.50
2019-03-25T21:48:41.936Z,6.50
2019-03-25T21:51:10.423Z,6.50
2019-03-25T21:53:44.036Z,6.50
2019-03-25T21:56:12.283Z,6.40
2019-03-25T21:58:40.742Z,6.40
2019-03-25T22:01:08.899Z,6.40
2019-03-25T22:03:37.062Z,6.40
2019-03-25T22:06:05.957Z,6.40
2019-03-25T22:08:34.182Z,6.40
2019-03-25T22:11:03.490Z,6.40
2019-03-25T22:13:31.590Z,6.50
2019-03-25T22:15:59.696Z,6.50
2019-03-25T22:18:30.562Z,6.50
2019-03-25T22:20:57.872Z,6.40
2019-03-25T22:23:29.552Z,6.50
2019-03-25T22:25:58.672Z,6.30
2019-03-25T22:28:27.303Z,6.30
2019-03-25T22:31:04.692Z,6.30
2019-03-25T22:33:36.037Z,6.30
2019-03-25T22:36:04.996Z,6.30
2019-03-25T22:38:33.789Z,6.20
2019-03-25T22:41:01.994Z,6.20
2019-03-25T22:43:30.118Z,6.10
2019-03-25T22:45:58.297Z,6.10
2019-03-25T22:48:26.560Z,6.10
2019-03-25T22:50:54.755Z,6.10
2019-03-25T22:53:22.874Z,6.00
2019-03-25T22:55:51.032Z,6.00
2019-03-25T22:58:19.174Z,6.00
2019-03-25T23:00:47.869Z,5.90
2019-03-25T23:03:16.358Z,5.90
2019-03-25T23:05:44.519Z,5.90
2019-03-25T23:08:12.648Z,5.90
2019-03-25T23:10:40.808Z,5.80
2019-03-25T23:13:09.190Z,5.80
2019-03-25T23:15:37.393Z,5.70
2019-03-25T23:18:05.464Z,5.60
2019-03-25T23:20:33.627Z,5.60
2019-03-25T23:23:01.743Z,5.60
